Details From BGBW - Narsarsuaq
To CYAY - ST ANTHONY
Flight Number -
Tags generated
Created
Modified
Stats Distance 994 nm / 1,842 km
Max Altitude 28,000 ft / 8,534 m
Waypoints 7
Social Downloads 0
Likes 0
Share VATSIM

Download

Looking for another format? Having issues loading an existing format? Contact us
Advertisement - Login to hide

Notes

Basic altitude profile: - Ascent Rate: 1500ft/min - Ascent Speed: 170kts - Cruise Altitude: 20000ft - Cruise Speed: 245kts - Descent Rate: 1500ft/min - Descent Speed: 179kts

Route

BGBW OZN 5E20 YR BR21 BX CYAY

ID Type Via Altitude Latitude Longitude Leg Dist Tot Dist Heading (true) Name
O BGBW APT - 0 ft / 0 m 61.16052˚ -45.42598˚ - 0 nm - Narsarsuaq
OZN NDB - 19,000 ft / 5,791 m 60.05722˚ -43.15972˚ 94 nm 94 nm 134° / 136° PRINS CHRISTIAN SUND NDB
5850N FIX 5E20 (AWY-HI) 28,000 ft / 8,534 m 58.00000˚ -50.00000˚ 244 nm 338 nm 243° / 237° -
LOACH FIX 5E20 (AWY-HI) 20,000 ft / 6,096 m 55.51667˚ -57.01667˚ 274 nm 613 nm 240° / 234° -
YR NDB 5E20 (AWY-HI) 20,000 ft / 6,096 m 53.33833˚ -60.36667˚ 175 nm 789 nm 223° / 220° GOOSE NDB
BX NDB BR21 (AWY-LO) 15,400 ft / 4,694 m 51.42133˚ -57.20292˚ 163 nm 952 nm 134° / 136° BLANC-SABLON NDB
O CYAY APT - 0 ft / 0 m 51.39190˚ -56.08315˚ 41 nm 994 nm 92° / 93° ST ANTHONY

Altitude Profile

Advertisement - Login to hide

Weather


0- 5 10 15 20 25 30 35+ Temperature / ° C

Clouds and Precipitation
Forecast for 2018-05-25 18:00 UTC. Updated 2 minutes ago

Ground ~20,000 ft ~40,000 ft Winds

BGBW

Details ICAO BGBW (UAK)
Name Narsarsuaq
Region Greenland
Timezone America/Godthab (UTC-2.0)
Stats Elevation 112 ft / 34 m (AMSL)
Location 61.160516° -45.425976°
Runways 1
Magnetic Variation 22.772° W

METAR

BGBW 251650Z 05027G38KT 9999 FEW050 SCT090 BKN120 07/M10 Q0988

Decode

TAF

Not found

Departure Runways

ID Width Length Bearing (true) Bearing (mag) Surface Threshold Offset Overrun Length
07 148 ft / 45 m 5,921 ft / 1,805 m 40.57° 63.34° Concrete 0 ft / 0 m 0 ft / 0 m
25 148 ft / 45 m 5,921 ft / 1,805 m 220.58° 243.35° Concrete 0 ft / 0 m 279 ft / 85 m

CYAY

Details ICAO CYAY (YAY)
Name ST ANTHONY
Region Canada
Timezone America/St_Johns (UTC-2.5)
Stats Elevation 108 ft / 33 m (AMSL)
Location 51.391900° -56.083147°
Runways 1
Magnetic Variation 19.832° W

METAR

CYAY 251700Z AUTO 11017KT 9SM BKN055 07/M03 A2975 RMK SLP078

Decode

TAF

TAF CYAY 251338Z 2514/2602 18010KT P6SM BKN050 TEMPO 2514/2518 6SM -SHRA BKN030 FM251800 16015KT P6SM BKN050 FM260100 13012KT 6SM -RASN BKN020 BKN050 RMK FCST BASED ON AUTO OBS. NXT FCST BY 252000Z

Decode

Destination Runways

ID Width Length Bearing (true) Bearing (mag) Surface Threshold Offset Overrun Length
10 100 ft / 30 m 3,992 ft / 1,217 m 79.79° 99.62° Asphalt 0 ft / 0 m 0 ft / 0 m
28 100 ft / 30 m 3,992 ft / 1,217 m 259.80° 279.63° Asphalt 0 ft / 0 m 0 ft / 0 m

Popular Alternatives